Sanmanyoshi7 — JD4004 — position and weather

sailwx.info

Track history (hours):
 
Tides and Currents Weather Stations Pressure Air Temp Water Temp Dewpoint Dewpoint Depression Visibility Wind Speed Wind Dir Waves Ship Positions

Sanmanyoshi7

Last reported at 2017-Nov-20 00:30 UTC. Time now 2017-Nov-20 17:10 UTC.
Position N 34°42' E 135°15'.

Length 61 m; draft 3.5 m.

Type: Cargo ship. MMSI: 431007715.

Date/timePositionNaut miles runAvg speedWind from/ knotsBaromVisibWave heightAir tempDewpointWater temp
2017-Nov-20 00:30N 34°42' E 135°15'0 0.0
2017-Nov-20 00:00N 34°42' E 135°15'0 0.0
2017-Nov-19 23:30N 34°42' E 135°15'0 0.9
2017-Nov-19 23:00N 34°42' E 135°15'3 6.1
2017-Nov-19 22:30N 34°39' E 135°15'0 0.5
2017-Nov-19 22:00N 34°38' E 135°15'0 0.0
2017-Nov-19 21:30N 34°38' E 135°15'0 0.0
2017-Nov-19 21:00N 34°38' E 135°15'0 0.0
2017-Nov-19 20:30N 34°38' E 135°15'0 0.0
2017-Nov-19 19:59N 34°38' E 135°15'0 0.0
2017-Nov-19 19:30N 34°38' E 135°15'0 0.0
2017-Nov-19 19:00N 34°38' E 135°15'0 0.0
2017-Nov-19 18:30N 34°38' E 135°15'0 0.0
2017-Nov-19 18:00N 34°38' E 135°15'0 0.0
2017-Nov-19 17:30N 34°38' E 135°15'0 0.0
2017-Nov-19 17:00N 34°38' E 135°15'0 0.0
2017-Nov-19 16:30N 34°38' E 135°15'0 0.0
2017-Nov-19 16:00N 34°38' E 135°15'0 0.0
2017-Nov-19 15:30N 34°38' E 135°15'0 0.0
2017-Nov-19 15:00N 34°38' E 135°15'1 1.0
2017-Nov-19 14:30N 34°39' E 135°15'3 5.5
2017-Nov-19 14:00N 34°37' E 135°13'611.4
2017-Nov-19 13:30N 34°35' E 135°06'510.3
2017-Nov-19 13:00N 34°37' E 135°00'510.1
2017-Nov-19 12:30N 34°37' E 134°54'510.6
2017-Nov-19 11:59N 34°41' E 134°49'0 0.1
2017-Nov-19 07:04N 34°41' E 134°49'  
2017-Nov-15 14:46N 34°41' E 134°48'8 0.8
2017-Nov-15 04:44N 34°38' E 134°57'3 9.6
2017-Nov-15 04:23N 34°37' E 135°02'3 8.7
2017-Nov-15 04:00N 34°36' E 135°05'510.4
2017-Nov-15 03:30N 34°35' E 135°11'611.1
2017-Nov-15 02:59N 34°33' E 135°18'5 9.2
2017-Nov-15 02:27N 34°31' E 135°24'0 0.0
2017-Nov-15 00:58N 34°31' E 135°24'0 0.0
2017-Nov-15 00:29N 34°31' E 135°24'0 0.0
2017-Nov-14 23:59N 34°31' E 135°24'0 0.0
2017-Nov-14 22:40N 34°31' E 135°24'0 0.0
2017-Nov-14 22:09N 34°31' E 135°24'0 0.0
2017-Nov-14 21:52N 34°31' E 135°24'0 0.0
2017-Nov-14 21:28N 34°31' E 135°24'0 0.0
2017-Nov-14 20:56N 34°31' E 135°24'0 0.0
2017-Nov-14 17:32N 34°31' E 135°24'0 0.0
2017-Nov-14 17:30N 34°31' E 135°24'0 0.0
2017-Nov-14 14:25N 34°31' E 135°24'0 0.4
2017-Nov-14 13:58N 34°31' E 135°23'4 9.6
2017-Nov-14 13:30N 34°33' E 135°18'611.4
2017-Nov-14 13:00N 34°34' E 135°12'611.4
2017-Nov-14 12:30N 34°35' E 135°05'811.4
2017-Nov-14 11:51N 34°36' E 134°56'711.8
2017-Nov-14 11:18N 34°40' E 134°49'  
Track history (hours):
 
Tides and Currents Weather Stations Pressure Air Temp Water Temp Dewpoint Dewpoint Depression Visibility Wind Speed Wind Dir Waves Ship Positions

Sanmanyoshi7

Last reported at 2017-Nov-20 00:30 UTC. Time now 2017-Nov-20 17:10 UTC.
Position N 34°42' E 135°15'.

Length 61 m; draft 3.5 m.

Type: Cargo ship. MMSI: 431007715.

Date/timePositionNaut miles runAvg speedWind from/ knotsBaromVisibWave heightAir tempDewpointWater temp
2017-Nov-20 00:30N 34°42' E 135°15'0 0.0
2017-Nov-20 00:00N 34°42' E 135°15'0 0.0
2017-Nov-19 23:30N 34°42' E 135°15'0 0.9
2017-Nov-19 23:00N 34°42' E 135°15'3 6.1
2017-Nov-19 22:30N 34°39' E 135°15'0 0.5
2017-Nov-19 22:00N 34°38' E 135°15'0 0.0
2017-Nov-19 21:30N 34°38' E 135°15'0 0.0
2017-Nov-19 21:00N 34°38' E 135°15'0 0.0
2017-Nov-19 20:30N 34°38' E 135°15'0 0.0
2017-Nov-19 19:59N 34°38' E 135°15'0 0.0
2017-Nov-19 19:30N 34°38' E 135°15'0 0.0
2017-Nov-19 19:00N 34°38' E 135°15'0 0.0
2017-Nov-19 18:30N 34°38' E 135°15'0 0.0
2017-Nov-19 18:00N 34°38' E 135°15'0 0.0
2017-Nov-19 17:30N 34°38' E 135°15'0 0.0
2017-Nov-19 17:00N 34°38' E 135°15'0 0.0
2017-Nov-19 16:30N 34°38' E 135°15'0 0.0
2017-Nov-19 16:00N 34°38' E 135°15'0 0.0
2017-Nov-19 15:30N 34°38' E 135°15'0 0.0
2017-Nov-19 15:00N 34°38' E 135°15'1 1.0
2017-Nov-19 14:30N 34°39' E 135°15'3 5.5
2017-Nov-19 14:00N 34°37' E 135°13'611.4
2017-Nov-19 13:30N 34°35' E 135°06'510.3
2017-Nov-19 13:00N 34°37' E 135°00'510.1
2017-Nov-19 12:30N 34°37' E 134°54'510.6
2017-Nov-19 11:59N 34°41' E 134°49'0 0.1
2017-Nov-19 07:04N 34°41' E 134°49'  
2017-Nov-15 14:46N 34°41' E 134°48'8 0.8
2017-Nov-15 04:44N 34°38' E 134°57'3 9.6
2017-Nov-15 04:23N 34°37' E 135°02'3 8.7
2017-Nov-15 04:00N 34°36' E 135°05'510.4
2017-Nov-15 03:30N 34°35' E 135°11'611.1
2017-Nov-15 02:59N 34°33' E 135°18'5 9.2
2017-Nov-15 02:27N 34°31' E 135°24'0 0.0
2017-Nov-15 00:58N 34°31' E 135°24'0 0.0
2017-Nov-15 00:29N 34°31' E 135°24'0 0.0
2017-Nov-14 23:59N 34°31' E 135°24'0 0.0
2017-Nov-14 22:40N 34°31' E 135°24'0 0.0
2017-Nov-14 22:09N 34°31' E 135°24'0 0.0
2017-Nov-14 21:52N 34°31' E 135°24'0 0.0
2017-Nov-14 21:28N 34°31' E 135°24'0 0.0
2017-Nov-14 20:56N 34°31' E 135°24'0 0.0
2017-Nov-14 17:32N 34°31' E 135°24'0 0.0
2017-Nov-14 17:30N 34°31' E 135°24'0 0.0
2017-Nov-14 14:25N 34°31' E 135°24'0 0.4
2017-Nov-14 13:58N 34°31' E 135°23'4 9.6
2017-Nov-14 13:30N 34°33' E 135°18'611.4
2017-Nov-14 13:00N 34°34' E 135°12'611.4
2017-Nov-14 12:30N 34°35' E 135°05'811.4
2017-Nov-14 11:51N 34°36' E 134°56'711.8
2017-Nov-14 11:18N 34°40' E 134°49'  

Dump ship's entire track history